Lena, Ohio
Current Conditions -  °F | °C
As of 4:30 AM on Monday 24 Nov 2014 (Local Time) from KEDJ Reporting Station
Overcast Overcast  
Wind Chill: 55°   Ceiling: 1400
Heat Index: 55°   Visibility: 10mi
Dew Point: 55°   Wind: 23mph
Humidity: 100%   Direction: 200°SSW
Pressure: 29.28"   Gusts: 32mph
Location:  40.1698°N, 84.0228°W
Report Text: KEDJ 240930Z AUTO 20020G28KT 10SM BKN014 OVC022 13/13 A2928 RMK AO1
Loading
Personal Weather Stations






























Interactive Weather Map New forecast layout! Learn more

10-Day Weather Forecast

Advertisements
Track Severe Weather on mobile